Flight Track Log - Related Links

Times and Time Zones

All times are in EDT time to prevent confusion due to time zone crossing. See the SWA378 flight status page for this flight to view local times or setup timezone preferences in your user account.

Time Position Orientation Groundspeed Altitude Reporting Facility
EDT Latitude Longitude Course Direction KTS MPH feet Rate Location/Type
Tue 08:44:37 PM 36.8553 -76.2408 214° Southwest 191 220 3,800  Level Washington Center
Tue 08:45:37 PM 36.8947 -76.2878 316° Northwest 268 308 4,000 197 Climbing Washington Center
Tue 08:46:39 PM 36.9403 -76.3508 312° West 266 306 4,200 1,897 Climbing Washington Center
Tue 08:47:34 PM 36.9794 -76.4239 304° West 283 326 7,700 3,744 Climbing Washington Center
Tue 08:48:36 PM 37.0289 -76.5000 309° West 283 326 11,500 3,836 Climbing Washington Center
Tue 08:49:36 PM 37.0886 -76.5892 310° West 302 348 15,500 2,250 Climbing Washington Center
Tue 08:50:36 PM 37.1294 -76.6808 299° West 327 376 16,000 254 Climbing Washington Center
Tue 08:51:34 PM 37.1786 -76.7883 300° West 340 391 16,000  Level Washington Center
Tue 08:52:36 PM 37.2256 -76.8933 299° West 345 397 16,000  Level Washington Center
Tue 08:53:37 PM 37.2783 -77.0144 299° West 356 410 16,000  Level Washington Center
Tue 08:54:34 PM 37.3211 -77.1039 301° West 356 410 16,000  Level Washington Center
Tue 08:55:35 PM 37.3969 -77.2022 314° West 351 404 16,000  Level Washington Center
Tue 08:56:36 PM 37.4669 -77.2822 318° Northwest 341 392 16,000  Level Washington Center
Tue 08:57:36 PM 37.5539 -77.3128 344° North 328 377 16,000  Level Washington Center
Tue 08:58:34 PM 37.6503 -77.2914 10° North 323 372 16,000  Level Washington Center
Tue 08:59:35 PM 37.7486 -77.2700 10° North 329 379 16,000  Level Washington Center
Tue 09:00:35 PM 37.8531 -77.2486 North 357 411 16,000  Level Washington Center
Tue 09:01:36 PM 37.9619 -77.2275 North 372 428 16,000  Level Washington Center
Tue 09:02:36 PM 38.0558 -77.2108 North 387 445 16,000  Level Washington Center
Tue 09:03:35 PM 38.1647 -77.1869 10° North 387 445 16,000  Level Washington Center
Tue 09:04:35 PM 38.2839 -77.1578 11° North 402 463 16,000 -492 Level Washington Center
Tue 09:05:37 PM 38.3803 -77.1358 10° North 389 448 15,000 -1,600 Descending Washington Center
Tue 09:06:35 PM 38.4606 -77.0472 41° Northeast 375 432 12,800 504 Descending Washington Center
Tue 09:07:36 PM 38.5431 -76.9400 45° Northeast 372 428 16,000 -1,750 Climbing Washington Center
Tue 09:08:35 PM 38.6086 -76.8669 41° Northeast 366 421 9,300 -3,500 Descending Washington Center
Tue 09:09:36 PM 38.6697 -76.7883 45° Northeast 340 391 9,000 -151 Descending Washington Center
Tue 09:10:34 PM 38.7206 -76.7119 50° Northeast 300 345 9,000 -600 Level Washington Center
Tue 09:11:36 PM 38.7547 -76.6272 63° Northeast 275 316 7,800 -1,514 Descending Washington Center
Tue 09:12:25 PM 38.8000 -76.5500 53° Northeast 279 321 6,200 -1,722 Descending Potomac TRACON
Tue 09:13:31 PM 38.8833 -76.5500 360° North 275 316 4,500 -1,048 Descending Potomac TRACON
Tue 09:14:31 PM 38.9500 -76.5833 339° North 272 313 4,000 -200 Descending Potomac TRACON
Tue 09:15:31 PM 39.0000 -76.6500 314° West 270 311 4,100 50 Climbing Potomac TRACON
Tue 09:16:31 PM 39.0333 -76.7333 297° West 269 310 4,100 -400 Level Potomac TRACON
Tue 09:17:31 PM 39.0667 -76.8167 297° West 272 313 3,300 -850 Descending Potomac TRACON
Tue 09:18:31 PM 39.1167 -76.8833 314° West 278 320 2,400 -684 Descending Potomac TRACON
Tue 09:19:25 PM 39.1667 -76.8833 360° North 258 297 2,000 -316 Descending Potomac TRACON
Tue 09:20:25 PM 39.1833 -76.8000 76° East 198 228 1,800 -450 Descending Potomac TRACON
Tue 09:21:25 PM 39.1833 -76.7500 90° East 157 181 1,100 -694 Descending Potomac TRACON
Tue 09:22:26 PM 39.1833 -76.7000 90° East 137 158 400 -689 Descending Potomac TRACON
Tue 09:24:00 PM 39.1754 -76.6683 180° South  Level Estimated
Tue 09:31:00 PM 39.1754 -76.6683 351° North  Level Estimated
Tue 09:32:00 PM 39.1754 -76.6683 351° North  Level Estimated

Login

Don't have an account? Register now (free) for customized features, flight alerts, and more!